Time;durP1;ratioP1;P1;durP2;ratioP2;P2;SDS_P1;SDS_P2;PMS_P1;PMS_P2;Temp;Humidity;BMP_temperature;BMP_pressure;BME280_temperature;BME280_humidity;BME280_pressure;Samples;Min_cycle;Max_cycle;Signal;HPM_P1;HPM_P2
2021/10/28 00:14:13;;;;;;;0.40;0.20;;;6.50;99.90;;;;;;5093414;28;20393;-72
2021/10/28 00:16:41;;;;;;;0.40;0.20;;;6.40;99.90;;;;;;5094620;28;20850;-71
2021/10/28 00:19:07;;;;;;;0.40;0.30;;;6.50;99.90;;;;;;5093990;28;20378;-71
2021/10/28 00:21:35;;;;;;;0.50;0.50;;;6.50;99.90;;;;;;5094040;28;20388;-71
2021/10/28 00:24:05;;;;;;;0.40;0.20;;;6.50;99.90;;;;;;5092477;28;20378;-73
2021/10/28 00:26:33;;;;;;;0.40;0.30;;;6.60;99.90;;;;;;5094033;28;20711;-72
2021/10/28 00:29:01;;;;;;;0.40;0.20;;;6.60;99.90;;;;;;5094162;28;20402;-73
2021/10/28 00:31:29;;;;;;;0.50;0.50;;;6.50;99.90;;;;;;5093632;28;20378;-73
2021/10/28 00:33:56;;;;;;;0.40;0.20;;;6.60;99.90;;;;;;5093855;28;20926;-72
2021/10/28 00:36:22;;;;;;;0.40;0.20;;;6.70;99.90;;;;;;5092865;28;20472;-72
2021/10/28 00:38:50;;;;;;;0.40;0.20;;;6.70;99.90;;;;;;5093998;28;20504;-72
2021/10/28 00:41:21;;;;;;;0.40;0.30;;;6.60;99.90;;;;;;5093216;28;20378;-72
2021/10/28 00:43:49;;;;;;;0.40;0.20;;;6.50;99.90;;;;;;5092630;28;20389;-72
2021/10/28 00:46:17;;;;;;;0.40;0.30;;;6.60;99.90;;;;;;5093002;28;20385;-72
2021/10/28 00:48:46;;;;;;;0.40;0.20;;;6.60;99.90;;;;;;5093735;28;20423;-72
2021/10/28 00:51:13;;;;;;;0.40;0.20;;;6.50;99.90;;;;;;5092847;28;20403;-72
2021/10/28 00:53:39;;;;;;;1.40;1.30;;;6.50;99.90;;;;;;5093332;28;20882;-73
2021/10/28 00:56:05;;;;;;;0.40;0.20;;;6.50;99.90;;;;;;5092976;28;20451;-74
2021/10/28 00:58:32;;;;;;;0.40;0.20;;;6.60;99.90;;;;;;5093691;28;20460;-71
2021/10/28 01:01:05;;;;;;;0.40;0.20;;;6.50;99.90;;;;;;5092250;28;20382;-72
2021/10/28 01:03:33;;;;;;;0.40;0.30;;;6.50;99.90;;;;;;5093382;28;20537;-72
2021/10/28 01:05:59;;;;;;;0.40;0.20;;;6.60;99.90;;;;;;5093533;28;20393;-71
2021/10/28 01:08:26;;;;;;;0.40;0.40;;;6.60;99.90;;;;;;5092381;28;20530;-72
2021/10/28 01:10:52;;;;;;;0.40;0.20;;;6.60;99.90;;;;;;5093634;28;20382;-71
2021/10/28 01:13:20;;;;;;;0.40;0.20;;;6.60;99.90;;;;;;5091651;28;20374;-72
2021/10/28 01:15:47;;;;;;;0.40;0.20;;;6.50;99.90;;;;;;5093603;28;20384;-72
2021/10/28 01:18:15;;;;;;;0.40;0.20;;;6.40;99.90;;;;;;5092353;28;20481;-72
2021/10/28 01:20:43;;;;;;;1.50;0.60;;;6.40;99.90;;;;;;5091856;28;20389;-72
2021/10/28 01:23:11;;;;;;;0.40;0.30;;;6.40;99.90;;;;;;5092112;28;20568;-72
2021/10/28 01:25:38;;;;;;;0.40;0.20;;;6.40;99.90;;;;;;5093290;28;20465;-72
2021/10/28 01:28:06;;;;;;;0.40;0.20;;;6.30;99.90;;;;;;5092657;28;20734;-74
2021/10/28 01:30:32;;;;;;;0.40;0.20;;;6.20;99.90;;;;;;5093120;28;20374;-71
2021/10/28 01:32:57;;;;;;;1.90;1.08;;;6.10;99.90;;;;;;5092494;28;20393;-71
2021/10/28 01:35:23;;;;;;;0.40;0.20;;;6.10;99.90;;;;;;5091898;28;20390;-72
2021/10/28 01:37:50;;;;;;;0.40;0.20;;;6.00;99.90;;;;;;5091595;28;20711;-72
2021/10/28 01:40:16;;;;;;;0.40;0.20;;;6.20;99.90;;;;;;5092043;28;20458;-72
2021/10/28 01:42:48;;;;;;;0.40;0.20;;;6.10;99.90;;;;;;5092475;28;20456;-72
2021/10/28 01:45:13;;;;;;;0.40;0.20;;;6.10;99.90;;;;;;5091884;28;20386;-72
2021/10/28 01:47:40;;;;;;;0.40;0.20;;;6.20;99.90;;;;;;5091088;28;20410;-72
2021/10/28 01:50:08;;;;;;;0.40;0.30;;;6.20;99.90;;;;;;5092158;28;20382;-73
2021/10/28 01:52:35;;;;;;;0.40;0.30;;;6.10;99.90;;;;;;5092213;28;20422;-71
2021/10/28 01:55:01;;;;;;;0.40;0.30;;;6.10;99.90;;;;;;5092560;28;20378;-71
2021/10/28 01:57:26;;;;;;;0.40;0.40;;;6.00;99.90;;;;;;5091397;28;20935;-72
2021/10/28 01:59:52;;;;;;;0.40;0.20;;;5.90;99.90;;;;;;5092406;28;20404;-72
2021/10/28 02:02:18;;;;;;;0.80;0.80;;;5.90;99.90;;;;;;5091898;28;20389;-72
2021/10/28 02:04:43;;;;;;;0.40;0.20;;;5.90;99.90;;;;;;5091885;28;20386;-72
2021/10/28 02:07:09;;;;;;;0.40;0.20;;;6.00;99.90;;;;;;5091513;28;20804;-74
2021/10/28 02:09:35;;;;;;;0.70;0.70;;;5.90;99.90;;;;;;5092102;28;20385;-71
2021/10/28 02:12:01;;;;;;;0.40;0.20;;;5.80;99.90;;;;;;5092216;28;20435;-71
2021/10/28 02:14:27;;;;;;;0.40;0.28;;;5.80;99.90;;;;;;5091377;28;20385;-72
2021/10/28 02:16:53;;;;;;;0.40;0.20;;;5.80;99.90;;;;;;5092120;28;20386;-71
2021/10/28 02:19:20;;;;;;;0.52;0.52;;;5.80;99.90;;;;;;5091176;28;20429;-72
2021/10/28 02:21:45;;;;;;;0.40;0.20;;;5.80;99.90;;;;;;5092276;28;20399;-72
2021/10/28 02:24:11;;;;;;;0.40;0.20;;;5.80;99.90;;;;;;5090553;28;20378;-72
2021/10/28 02:26:37;;;;;;;0.40;0.20;;;5.80;99.90;;;;;;5092019;28;20382;-71
2021/10/28 02:29:03;;;;;;;0.40;0.30;;;5.80;99.90;;;;;;5091264;28;20804;-72
2021/10/28 02:31:31;;;;;;;0.40;0.20;;;5.80;99.90;;;;;;5091054;28;20472;-71
2021/10/28 02:33:57;;;;;;;0.40;0.20;;;5.80;99.90;;;;;;5091624;28;20469;-71
2021/10/28 02:36:23;;;;;;;0.40;0.20;;;5.80;99.90;;;;;;5091191;28;20485;-71
2021/10/28 02:38:48;;;;;;;0.40;0.20;;;5.70;99.90;;;;;;5091213;28;20460;-71
2021/10/28 02:41:14;;;;;;;0.80;0.50;;;5.70;99.90;;;;;;5090841;28;20439;-72
2021/10/28 02:43:40;;;;;;;0.40;0.20;;;5.60;99.90;;;;;;5092066;28;20695;-71
2021/10/28 02:46:06;;;;;;;0.40;0.30;;;5.60;99.90;;;;;;5091021;28;20447;-72
2021/10/28 02:48:32;;;;;;;0.40;0.20;;;5.50;99.90;;;;;;5090672;28;20459;-72
2021/10/28 02:50:58;;;;;;;0.40;0.40;;;5.60;99.90;;;;;;5091265;28;20781;-72
2021/10/28 02:53:23;;;;;;;0.40;0.20;;;5.70;99.90;;;;;;5089998;28;20485;-71
2021/10/28 02:55:49;;;;;;;0.40;0.20;;;5.70;99.90;;;;;;5091461;28;20450;-71
2021/10/28 02:58:15;;;;;;;0.40;0.20;;;5.60;99.90;;;;;;5089066;28;20394;-71
2021/10/28 03:00:41;;;;;;;0.40;0.20;;;5.60;99.90;;;;;;5091399;28;20457;-72
2021/10/28 03:03:06;;;;;;;0.60;0.60;;;5.60;99.90;;;;;;5091375;28;20378;-72
2021/10/28 03:05:32;;;;;;;0.40;0.20;;;5.60;99.90;;;;;;5090301;28;20790;-72
2021/10/28 03:07:58;;;;;;;0.40;0.20;;;5.50;99.90;;;;;;5091200;28;20410;-71
2021/10/28 03:10:24;;;;;;;0.40;0.20;;;5.50;99.90;;;;;;5090264;28;20390;-72
2021/10/28 03:12:52;;;;;;;0.40;0.30;;;5.50;99.90;;;;;;5090880;28;20850;-71
2021/10/28 03:15:18;;;;;;;0.40;0.20;;;5.50;99.90;;;;;;5090197;28;20473;-72
2021/10/28 03:25:47;;;;;;;0.40;0.20;;;5.50;99.90;;;;;;5089695;28;20435;-71
2021/10/28 03:28:18;;;;;;;0.40;0.40;;;5.60;99.90;;;;;;5089876;28;20402;-75
2021/10/28 03:30:45;;;;;;;0.40;0.20;;;5.50;99.90;;;;;;5090815;28;20381;-72
2021/10/28 03:33:17;;;;;;;0.40;0.20;;;5.50;99.90;;;;;;5090511;28;20865;-74
2021/10/28 03:35:46;;;;;;;0.40;0.20;;;5.50;99.90;;;;;;5090315;28;20378;-72
2021/10/28 03:38:25;;;;;;;0.40;0.30;;;5.50;99.90;;;;;;5090172;28;20390;-74
2021/10/28 04:29:04;;;;;;;0.40;0.20;;;5.50;99.90;;;;;;5090159;28;20409;-72
2021/10/28 04:31:36;;;;;;;0.40;0.20;;;5.40;99.90;;;;;;5090023;28;20416;-71
2021/10/28 04:34:08;;;;;;;0.40;0.30;;;5.40;99.90;;;;;;5090544;28;20863;-71
2021/10/28 04:36:35;;;;;;;0.40;0.20;;;5.30;99.90;;;;;;5089837;28;20386;-71
2021/10/28 04:39:05;;;;;;;0.47;0.47;;;5.30;99.90;;;;;;5089234;28;20425;-70
2021/10/28 04:41:30;;;;;;;0.40;0.30;;;5.10;99.90;;;;;;5089419;28;20369;-71
2021/10/28 04:43:56;;;;;;;0.40;0.20;;;5.30;99.90;;;;;;5090584;28;20378;-71
2021/10/28 04:46:22;;;;;;;0.40;0.20;;;5.30;99.90;;;;;;5089641;28;20421;-71
2021/10/28 04:48:48;;;;;;;0.40;0.30;;;5.30;99.90;;;;;;5091678;28;20441;-71
2021/10/28 04:51:14;;;;;;;0.40;0.30;;;5.30;99.90;;;;;;5094130;28;20386;-72
2021/10/28 04:53:39;;;;;;;0.40;0.20;;;5.30;99.90;;;;;;5093462;28;20803;-72
2021/10/28 04:56:05;;;;;;;0.50;0.40;;;5.30;99.90;;;;;;5093539;28;20386;-72
2021/10/28 04:58:31;;;;;;;0.40;0.40;;;5.40;99.90;;;;;;5093147;28;20850;-72
2021/10/28 05:00:57;;;;;;;0.40;0.20;;;5.40;99.90;;;;;;5093770;28;20494;-72
2021/10/28 05:03:22;;;;;;;0.40;0.20;;;5.50;99.90;;;;;;5093108;28;20731;-72
2021/10/28 05:05:48;;;;;;;0.40;0.30;;;5.50;99.90;;;;;;5094171;28;20437;-72
2021/10/28 05:08:14;;;;;;;0.40;0.20;;;5.50;99.90;;;;;;5093524;28;20426;-71
2021/10/28 05:10:41;;;;;;;0.45;0.43;;;5.30;99.90;;;;;;5093018;28;20397;-72
2021/10/28 05:13:12;;;;;;;0.40;0.25;;;5.30;99.90;;;;;;5092535;28;20481;-72
2021/10/28 05:15:46;;;;;;;0.40;0.20;;;5.30;99.90;;;;;;5092812;28;20382;-72
2021/10/28 05:18:13;;;;;;;0.40;0.20;;;5.20;99.90;;;;;;5093905;28;20462;-71
2021/10/28 05:20:39;;;;;;;0.50;0.40;;;5.20;99.90;;;;;;5092875;28;20389;-71
2021/10/28 05:23:06;;;;;;;0.47;0.47;;;5.30;99.90;;;;;;5093955;28;20466;-73
2021/10/28 05:25:32;;;;;;;0.40;0.30;;;5.40;99.90;;;;;;5092557;28;20738;-72
2021/10/28 05:28:00;;;;;;;0.40;0.40;;;5.40;99.90;;;;;;5092278;28;20815;-72
2021/10/28 05:30:27;;;;;;;0.40;0.20;;;5.60;99.90;;;;;;5092422;28;20386;-73
2021/10/28 05:32:52;;;;;;;0.50;0.47;;;5.60;99.90;;;;;;5092982;28;20472;-72
2021/10/28 05:35:18;;;;;;;0.40;0.20;;;5.70;99.90;;;;;;5092798;28;20466;-74
2021/10/28 05:37:47;;;;;;;0.40;0.20;;;5.60;99.90;;;;;;5092662;28;20518;-72
2021/10/28 05:40:14;;;;;;;1.00;0.90;;;5.50;99.90;;;;;;5093177;28;20381;-72
2021/10/28 05:42:43;;;;;;;0.60;0.60;;;5.50;99.90;;;;;;5093112;28;20689;-73
2021/10/28 05:45:13;;;;;;;0.40;0.30;;;5.40;99.90;;;;;;5093380;28;20374;-72
2021/10/28 05:47:38;;;;;;;0.40;0.20;;;5.30;99.90;;;;;;5089557;28;20978;-72
2021/10/28 05:50:12;;;;;;;0.40;0.20;;;5.30;99.90;;;;;;5093372;28;20523;-72
2021/10/28 05:52:39;;;;;;;0.40;0.30;;;5.30;99.90;;;;;;5092343;28;20438;-72
2021/10/28 05:55:05;;;;;;;0.40;0.20;;;5.30;99.90;;;;;;5093652;28;20606;-73
2021/10/28 05:57:34;;;;;;;0.60;0.60;;;5.30;99.90;;;;;;5092649;28;20735;-72
2021/10/28 06:00:00;;;;;;;0.40;0.40;;;5.30;99.90;;;;;;5092387;28;20735;-71
2021/10/28 06:02:25;;;;;;;0.70;0.70;;;5.40;99.90;;;;;;5092207;28;20389;-72
2021/10/28 06:04:51;;;;;;;0.40;0.20;;;5.40;99.90;;;;;;5092987;28;20481;-72
2021/10/28 06:07:17;;;;;;;0.40;0.28;;;5.40;99.90;;;;;;5092906;28;20497;-72
2021/10/28 06:09:44;;;;;;;0.40;0.30;;;5.40;99.90;;;;;;5092014;28;20412;-72
2021/10/28 06:12:10;;;;;;;0.40;0.20;;;5.40;99.90;;;;;;5093340;28;20370;-72
2021/10/28 06:14:35;;;;;;;0.80;0.70;;;5.50;99.90;;;;;;5092241;28;20386;-72
2021/10/28 06:17:08;;;;;;;0.40;0.20;;;5.60;99.90;;;;;;5093154;28;20850;-72
2021/10/28 06:19:34;;;;;;;0.98;0.88;;;5.70;99.90;;;;;;5092173;28;20378;-72
2021/10/28 06:22:01;;;;;;;0.50;0.40;;;5.60;99.90;;;;;;5091584;28;20424;-71
2021/10/28 06:24:27;;;;;;;0.40;0.20;;;5.60;99.90;;;;;;5091917;28;20923;-72
2021/10/28 06:26:54;;;;;;;0.40;0.20;;;5.70;99.90;;;;;;5092596;28;20367;-71
2021/10/28 06:29:19;;;;;;;0.50;0.50;;;5.70;99.90;;;;;;5090885;28;20449;-72
2021/10/28 06:31:47;;;;;;;0.40;0.20;;;5.70;99.90;;;;;;5092008;28;20378;-71
2021/10/28 06:34:26;;;;;;;0.40;0.20;;;5.80;99.90;;;;;;5092625;28;20432;-72
2021/10/28 06:36:53;;;;;;;0.50;0.50;;;5.80;99.90;;;;;;5091511;28;20401;-71
2021/10/28 06:39:18;;;;;;;0.40;0.20;;;5.90;99.90;;;;;;5090965;28;20403;-72
2021/10/28 06:41:45;;;;;;;0.40;0.22;;;5.90;99.90;;;;;;5091900;28;20462;-72
2021/10/28 06:44:10;;;;;;;0.40;0.20;;;5.90;99.90;;;;;;5092179;28;20409;-72
2021/10/28 06:46:36;;;;;;;0.40;0.30;;;5.90;99.90;;;;;;5091475;28;20868;-72
2021/10/28 06:49:06;;;;;;;0.40;0.40;;;5.90;99.90;;;;;;5092733;28;20416;-75
2021/10/28 06:51:39;;;;;;;1.60;1.20;;;6.00;99.90;;;;;;5093631;28;20402;-72
2021/10/28 06:54:17;;;;;;;0.40;0.40;;;5.90;99.90;;;;;;5106706;28;20857;-72
2021/10/28 06:57:00;;;;;;;0.50;0.50;;;5.80;99.90;;;;;;5102812;28;20624;-71
2021/10/28 07:04:57;;;;;;;0.40;0.30;;;6.00;99.90;;;;;;5098919;28;20388;-70
2021/10/28 07:07:28;;;;;;;0.50;0.50;;;5.90;99.90;;;;;;5108514;28;20412;-73
2021/10/28 07:10:14;;;;;;;0.40;0.20;;;6.10;99.90;;;;;;5096964;28;20397;-73
2021/10/28 07:12:51;;;;;;;0.40;0.20;;;6.10;99.90;;;;;;5077835;28;20389;-74
2021/10/28 07:15:25;;;;;;;0.40;0.30;;;6.10;99.90;;;;;;5079599;28;20386;-74
2021/10/28 07:18:08;;;;;;;0.40;0.30;;;6.20;99.90;;;;;;5074733;28;20914;-71
2021/10/28 07:56:34;;;;;;;0.40;0.20;;;7.20;99.90;;;;;;5076206;28;20388;-74
2021/10/28 08:15:33;;;;;;;0.40;0.20;;;7.80;99.90;;;;;;5077783;28;20798;-73
2021/10/28 08:31:06;;;;;;;0.40;0.20;;;8.50;99.90;;;;;;5094906;28;20431;-72
2021/10/28 08:33:32;;;;;;;0.40;0.20;;;8.50;99.90;;;;;;5094857;28;20374;-72
2021/10/28 08:36:08;;;;;;;0.60;0.60;;;8.60;99.90;;;;;;5092517;28;20675;-72
2021/10/28 08:38:36;;;;;;;0.80;0.80;;;8.70;99.90;;;;;;5094536;28;20415;-73
2021/10/28 08:41:05;;;;;;;0.70;0.50;;;8.70;99.90;;;;;;5093997;28;20378;-73
2021/10/28 08:43:34;;;;;;;0.40;0.40;;;8.80;99.90;;;;;;5094617;28;20411;-74
2021/10/28 08:46:01;;;;;;;0.40;0.30;;;9.00;99.90;;;;;;5093460;28;20544;-73
2021/10/28 08:48:28;;;;;;;1.10;0.80;;;9.20;99.90;;;;;;5094307;28;20472;-73
2021/10/28 08:54:00;;;;;;;0.40;0.20;;;9.50;99.90;;;;;;5090532;28;20410;-72
2021/10/28 08:56:45;;;;;;;0.40;0.30;;;9.70;99.90;;;;;;5092952;28;20386;-72
2021/10/28 09:24:20;;;;;;;0.40;0.40;;;9.90;99.90;;;;;;5094658;28;20377;-72
2021/10/28 09:26:58;;;;;;;0.40;0.20;;;10.00;99.90;;;;;;5090691;28;20385;-72
2021/10/28 09:35:46;;;;;;;0.40;0.30;;;10.20;99.90;;;;;;5093345;28;20400;-72
2021/10/28 09:43:55;;;;;;;0.40;0.20;;;10.60;99.90;;;;;;5100034;28;20783;-72
2021/10/28 10:00:14;;;;;;;0.40;0.20;;;11.10;99.90;;;;;;5093144;28;20731;-72
2021/10/28 10:02:44;;;;;;;0.70;0.70;;;11.30;99.90;;;;;;5093010;28;20428;-72
2021/10/28 10:05:20;;;;;;;0.50;0.50;;;11.40;99.90;;;;;;5092482;28;20425;-72
2021/10/28 10:07:47;;;;;;;0.40;0.40;;;11.40;99.90;;;;;;5092370;28;20708;-72
2021/10/28 10:10:24;;;;;;;0.40;0.20;;;11.60;99.90;;;;;;5093019;28;20374;-72
2021/10/28 10:12:51;;;;;;;0.40;0.20;;;11.60;99.90;;;;;;5092112;28;20765;-72
2021/10/28 10:15:17;;;;;;;2.70;0.90;;;11.70;99.90;;;;;;5093282;28;20385;-71
2021/10/28 10:17:54;;;;;;;0.60;0.60;;;11.70;99.90;;;;;;5091454;28;20398;-72
2021/10/28 10:20:29;;;;;;;0.40;0.40;;;11.90;99.90;;;;;;5092842;28;20473;-72
2021/10/28 10:23:19;;;;;;;0.80;0.80;;;12.00;99.90;;;;;;5092518;28;20388;-72
2021/10/28 12:14:52;;;;;;;0.40;0.30;;;19.70;77.00;;;;;;5090272;28;20416;-73
2021/10/28 12:17:26;;;;;;;0.40;0.30;;;20.50;77.50;;;;;;5090251;28;20382;-73
2021/10/28 12:52:18;;;;;;;0.40;0.30;;;20.50;80.90;;;;;;5090664;28;20416;-73
2021/10/28 13:35:08;;;;;;;0.50;0.40;;;20.40;82.30;;;;;;5093830;28;20374;-72
2021/10/28 14:38:45;;;;;;;0.40;0.30;;;18.70;86.00;;;;;;5092134;28;20398;-73
2021/10/28 16:22:14;;;;;;;0.40;0.30;;;12.40;99.90;;;;;;5090219;28;20417;-73
2021/10/28 16:24:39;;;;;;;0.40;0.30;;;12.30;99.90;;;;;;5091322;28;20457;-73
2021/10/28 16:27:05;;;;;;;0.40;0.20;;;12.20;99.90;;;;;;5089788;28;20422;-74
2021/10/28 16:29:32;;;;;;;2.95;0.75;;;12.20;99.90;;;;;;5090181;28;20478;-72
2021/10/28 16:31:59;;;;;;;0.40;0.20;;;12.10;99.90;;;;;;5090465;28;20785;-73
2021/10/28 16:34:28;;;;;;;0.40;0.20;;;12.00;99.90;;;;;;5090000;28;20447;-73
2021/10/28 16:36:54;;;;;;;0.40;0.30;;;11.80;99.90;;;;;;5090719;28;20386;-73
2021/10/28 16:39:21;;;;;;;0.40;0.20;;;11.80;99.90;;;;;;5090170;28;20393;-73
2021/10/28 16:41:50;;;;;;;0.40;0.30;;;11.80;99.90;;;;;;5090461;28;20431;-73
2021/10/28 16:44:17;;;;;;;0.40;0.30;;;11.70;99.90;;;;;;5092099;28;20381;-73
2021/10/28 16:46:43;;;;;;;0.50;0.40;;;11.70;99.90;;;;;;5093160;28;20450;-73
2021/10/28 16:49:11;;;;;;;0.40;0.20;;;11.60;99.90;;;;;;5094351;28;20474;-72
2021/10/28 16:51:38;;;;;;;0.40;0.40;;;11.60;99.90;;;;;;5095600;28;20427;-73
2021/10/28 16:54:05;;;;;;;0.40;0.20;;;11.50;99.90;;;;;;5106456;28;20863;-72
2021/10/28 16:56:31;;;;;;;0.40;0.30;;;11.40;99.90;;;;;;5097934;28;20381;-71
2021/10/28 16:58:57;;;;;;;2.80;0.70;;;11.30;99.90;;;;;;5111148;28;20424;-71
2021/10/28 17:01:24;;;;;;;0.40;0.30;;;11.30;99.90;;;;;;5099923;28;20412;-71
2021/10/28 17:03:50;;;;;;;0.40;0.30;;;11.30;99.90;;;;;;5095445;28;20400;-72
2021/10/28 17:06:16;;;;;;;0.40;0.30;;;11.20;99.90;;;;;;5108346;28;20388;-70
2021/10/28 17:08:46;;;;;;;0.60;0.60;;;11.20;99.90;;;;;;5095826;28;20484;-70
2021/10/28 17:11:13;;;;;;;0.40;0.20;;;11.10;99.90;;;;;;5105753;27;20376;-73
2021/10/28 17:13:39;;;;;;;0.50;0.50;;;11.00;99.90;;;;;;5096839;28;20739;-71
2021/10/28 17:16:06;;;;;;;0.50;0.40;;;11.10;99.90;;;;;;5092461;28;20452;-72
2021/10/28 17:18:33;;;;;;;0.40;0.30;;;11.00;99.90;;;;;;5093040;28;20447;-71
2021/10/28 17:21:04;;;;;;;0.40;0.20;;;11.00;99.90;;;;;;5094639;28;20541;-72
2021/10/28 17:23:37;;;;;;;0.40;0.20;;;10.90;99.90;;;;;;5110531;28;20445;-71
2021/10/28 17:26:05;;;;;;;0.40;0.20;;;11.00;99.90;;;;;;5095018;28;20406;-71
2021/10/28 17:28:35;;;;;;;0.90;0.70;;;10.90;99.90;;;;;;5075789;28;21273;-71
2021/10/28 17:31:02;;;;;;;0.80;0.80;;;10.80;99.90;;;;;;5095726;28;20773;-71
2021/10/28 17:33:28;;;;;;;1.80;1.00;;;10.70;99.90;;;;;;5095623;28;20461;-68
2021/10/28 17:35:55;;;;;;;0.40;0.30;;;10.70;99.90;;;;;;5109593;28;20463;-68
2021/10/28 17:38:22;;;;;;;0.50;0.50;;;10.70;99.90;;;;;;5096507;28;20725;-69
2021/10/28 17:40:48;;;;;;;0.50;0.50;;;10.60;99.90;;;;;;5106923;27;20859;-68
2021/10/28 17:43:16;;;;;;;0.70;0.70;;;10.60;99.90;;;;;;5102865;28;20377;-69
2021/10/28 17:45:43;;;;;;;1.90;1.10;;;10.60;99.90;;;;;;5099794;28;20374;-69
2021/10/28 17:48:09;;;;;;;0.40;0.20;;;10.50;99.90;;;;;;5093290;28;20942;-70
2021/10/28 17:50:36;;;;;;;0.50;0.50;;;10.50;99.90;;;;;;5093060;28;20706;-70
2021/10/28 17:53:02;;;;;;;0.40;0.40;;;10.30;99.90;;;;;;5092906;28;20401;-70
2021/10/28 17:55:28;;;;;;;1.20;1.10;;;10.30;99.90;;;;;;5108633;28;20871;-70
2021/10/28 17:57:54;;;;;;;0.60;0.60;;;10.30;99.90;;;;;;5099461;28;20380;-69
2021/10/28 18:00:22;;;;;;;0.40;0.20;;;10.20;99.90;;;;;;5102597;27;20787;-69
2021/10/28 18:02:49;;;;;;;0.40;0.30;;;10.20;99.90;;;;;;5099864;28;20774;-68
2021/10/28 18:05:15;;;;;;;1.10;0.70;;;10.10;99.90;;;;;;5113067;28;20389;-69
2021/10/28 18:07:41;;;;;;;0.40;0.20;;;10.10;99.90;;;;;;5102823;28;20757;-70
2021/10/28 18:10:07;;;;;;;1.20;1.10;;;10.20;99.90;;;;;;5106084;28;20760;-70
2021/10/28 18:12:35;;;;;;;0.40;0.30;;;10.10;99.90;;;;;;5100645;28;20557;-70
2021/10/28 18:15:03;;;;;;;0.40;0.40;;;10.10;99.90;;;;;;5097839;28;20420;-70
2021/10/28 18:17:28;;;;;;;0.40;0.20;;;10.10;99.90;;;;;;5094809;28;20375;-71
2021/10/28 18:19:57;;;;;;;0.45;0.45;;;10.10;99.90;;;;;;5095373;28;20389;-70
2021/10/28 18:22:24;;;;;;;0.40;0.30;;;10.10;99.90;;;;;;5095859;28;20382;-70
2021/10/28 18:24:49;;;;;;;0.50;0.40;;;10.00;99.90;;;;;;5092505;28;20880;-70
2021/10/28 18:27:15;;;;;;;0.50;0.40;;;10.00;99.90;;;;;;5092463;28;20371;-71
2021/10/28 18:29:45;;;;;;;1.30;0.60;;;9.90;99.90;;;;;;5092025;28;20410;-70
2021/10/28 18:32:11;;;;;;;0.40;0.20;;;9.80;99.90;;;;;;5092570;28;20800;-69
2021/10/28 18:34:40;;;;;;;1.00;1.00;;;9.70;99.90;;;;;;5091750;28;20386;-69
2021/10/28 18:37:06;;;;;;;0.40;0.20;;;9.80;99.90;;;;;;5092526;28;20482;-70
2021/10/28 18:39:32;;;;;;;0.40;0.30;;;9.80;99.90;;;;;;5091624;28;20390;-70
2021/10/28 18:41:59;;;;;;;0.70;0.60;;;9.80;99.90;;;;;;5092300;28;20447;-69
2021/10/28 18:44:26;;;;;;;1.70;1.00;;;9.80;99.90;;;;;;5091388;28;20428;-70
2021/10/28 18:46:53;;;;;;;0.40;0.20;;;9.60;99.90;;;;;;5092125;28;20396;-70
2021/10/28 18:49:19;;;;;;;0.40;0.30;;;9.60;99.90;;;;;;5091531;28;20792;-70
2021/10/28 18:51:47;;;;;;;0.40;0.30;;;9.50;99.90;;;;;;5092270;28;20551;-70
2021/10/28 18:54:16;;;;;;;0.40;0.30;;;9.50;99.90;;;;;;5092289;28;20369;-70
2021/10/28 18:56:43;;;;;;;1.40;0.70;;;9.50;99.90;;;;;;5091899;28;20386;-70
2021/10/28 18:59:09;;;;;;;2.00;1.00;;;9.30;99.90;;;;;;5090796;28;20389;-69
2021/10/28 19:01:36;;;;;;;0.40;0.20;;;9.30;99.90;;;;;;5091473;28;20693;-69
2021/10/28 19:04:02;;;;;;;0.40;0.20;;;9.30;99.90;;;;;;5092156;28;20386;-70
2021/10/28 19:06:28;;;;;;;0.77;0.68;;;9.20;99.90;;;;;;5091158;28;20389;-70
2021/10/28 19:08:53;;;;;;;0.40;0.20;;;9.10;99.90;;;;;;5091360;28;20402;-70
2021/10/28 19:11:20;;;;;;;0.40;0.40;;;9.20;99.90;;;;;;5090766;28;20473;-71
2021/10/28 19:13:48;;;;;;;0.40;0.20;;;9.20;99.90;;;;;;5091664;28;20385;-70
2021/10/28 19:16:15;;;;;;;0.40;0.40;;;9.10;99.90;;;;;;5090726;28;20377;-70
2021/10/28 19:18:41;;;;;;;0.40;0.30;;;9.20;99.90;;;;;;5090421;28;20481;-71
2021/10/28 19:21:08;;;;;;;0.40;0.30;;;9.10;99.90;;;;;;5091628;28;20378;-70
2021/10/28 19:23:34;;;;;;;0.40;0.30;;;9.00;99.90;;;;;;5090580;28;20921;-71
2021/10/28 19:26:00;;;;;;;0.40;0.30;;;9.10;99.90;;;;;;5091810;28;20409;-70
2021/10/28 19:28:26;;;;;;;0.40;0.30;;;9.00;99.90;;;;;;5090867;28;20445;-70
2021/10/28 19:30:57;;;;;;;0.73;0.57;;;9.00;99.90;;;;;;5091593;28;20802;-70
2021/10/28 19:33:38;;;;;;;0.40;0.20;;;9.00;99.90;;;;;;5091287;28;20379;-70
2021/10/28 19:36:06;;;;;;;0.40;0.25;;;9.00;99.90;;;;;;5091452;28;20428;-70
2021/10/28 19:46:14;;;;;;;0.40;0.40;;;9.00;99.90;;;;;;5091175;28;20427;-70
2021/10/28 19:48:41;;;;;;;0.80;0.80;;;9.00;99.90;;;;;;5090570;28;20402;-71
2021/10/28 19:51:08;;;;;;;0.40;0.20;;;9.00;99.90;;;;;;5090680;28;20481;-70
2021/10/28 19:53:34;;;;;;;0.80;0.80;;;8.80;99.90;;;;;;5089963;28;20408;-71
2021/10/28 19:56:11;;;;;;;0.50;0.50;;;8.80;99.90;;;;;;5090757;28;20473;-70
2021/10/28 19:58:44;;;;;;;0.40;0.30;;;8.80;99.90;;;;;;5088942;28;20390;-70
2021/10/28 20:01:24;;;;;;;0.40;0.30;;;8.60;99.90;;;;;;5089787;28;20386;-71
2021/10/28 20:22:17;;;;;;;0.40;0.20;;;8.40;99.90;;;;;;5115896;28;20390;-70
2021/10/28 20:24:43;;;;;;;0.60;0.60;;;8.40;99.90;;;;;;5115417;28;20375;-71
2021/10/28 20:27:11;;;;;;;0.60;0.60;;;8.50;99.90;;;;;;5115925;28;20724;-71
2021/10/28 20:29:37;;;;;;;0.40;0.20;;;8.40;99.90;;;;;;5114513;28;20940;-71
2021/10/28 20:32:03;;;;;;;1.30;0.90;;;8.30;99.90;;;;;;5115495;28;20380;-71
2021/10/28 20:37:16;;;;;;;0.40;0.20;;;8.30;99.90;;;;;;5115307;27;20383;-70
2021/10/28 20:39:46;;;;;;;0.40;0.30;;;8.20;99.90;;;;;;5113883;28;20392;-70
2021/10/28 20:42:16;;;;;;;0.50;0.40;;;8.30;99.90;;;;;;5115277;28;20380;-70
2021/10/28 20:44:49;;;;;;;0.43;0.38;;;8.30;99.90;;;;;;5114707;28;20969;-70
2021/10/28 20:47:16;;;;;;;0.40;0.35;;;8.40;99.90;;;;;;5097040;28;20781;-70
2021/10/28 20:49:44;;;;;;;0.40;0.20;;;8.30;99.90;;;;;;5093764;28;20414;-70
2021/10/28 20:52:13;;;;;;;0.40;0.30;;;8.20;99.90;;;;;;5094641;28;20481;-70
2021/10/28 20:54:40;;;;;;;0.40;0.30;;;8.20;99.90;;;;;;5094016;28;20874;-70
2021/10/28 20:57:06;;;;;;;0.40;0.27;;;8.20;99.90;;;;;;5094556;28;20378;-70
2021/10/28 20:59:32;;;;;;;1.10;1.00;;;8.20;99.90;;;;;;5093337;28;20889;-70
2021/10/28 21:01:58;;;;;;;0.40;0.20;;;8.30;99.90;;;;;;5094104;28;20396;-70
2021/10/28 21:04:24;;;;;;;0.40;0.40;;;8.30;99.90;;;;;;5093927;28;20858;-70
2021/10/28 21:06:50;;;;;;;0.40;0.25;;;8.30;99.90;;;;;;5094094;28;20417;-70
2021/10/28 21:09:16;;;;;;;0.80;0.80;;;8.30;99.90;;;;;;5094076;28;20432;-70
2021/10/28 21:11:47;;;;;;;0.50;0.50;;;8.20;99.90;;;;;;5093077;28;20461;-70
2021/10/28 21:14:13;;;;;;;0.80;0.70;;;8.20;99.90;;;;;;5103423;28;20737;-70
2021/10/28 21:16:39;;;;;;;0.40;0.20;;;8.10;99.90;;;;;;5113784;28;20429;-70
2021/10/28 21:19:05;;;;;;;0.40;0.30;;;8.00;99.90;;;;;;5113950;28;20391;-70
2021/10/28 21:21:32;;;;;;;0.40;0.27;;;8.00;99.90;;;;;;5113699;28;20467;-70
2021/10/28 21:23:58;;;;;;;0.40;0.20;;;7.90;99.90;;;;;;5098638;28;20382;-70
2021/10/28 21:26:26;;;;;;;0.40;0.30;;;7.80;99.90;;;;;;5092271;28;20481;-72
2021/10/28 21:28:52;;;;;;;0.40;0.30;;;7.80;99.90;;;;;;5092470;28;20413;-70
2021/10/28 21:31:18;;;;;;;0.43;0.35;;;7.80;99.90;;;;;;5092261;28;20851;-70
2021/10/28 21:33:44;;;;;;;0.40;0.40;;;7.80;99.90;;;;;;5093354;28;20382;-70
2021/10/28 21:36:10;;;;;;;0.93;0.63;;;7.80;99.90;;;;;;5093979;28;20393;-70
2021/10/28 21:38:35;;;;;;;0.40;0.30;;;7.80;99.90;;;;;;5091464;28;20474;-70
2021/10/28 21:41:02;;;;;;;0.40;0.20;;;7.70;99.90;;;;;;5093547;28;20385;-70
2021/10/28 21:43:28;;;;;;;0.60;0.60;;;7.60;99.90;;;;;;5091808;28;20386;-71
2021/10/28 21:45:54;;;;;;;1.30;0.60;;;7.60;99.90;;;;;;5093113;28;20739;-70
2021/10/28 21:48:21;;;;;;;0.40;0.30;;;7.60;99.90;;;;;;5093138;28;20810;-70
2021/10/28 21:50:52;;;;;;;0.40;0.20;;;7.60;99.90;;;;;;5092566;28;20378;-70
2021/10/28 21:53:18;;;;;;;0.50;0.50;;;7.60;99.90;;;;;;5093281;28;20394;-70
2021/10/28 22:03:54;;;;;;;0.40;0.30;;;7.50;99.90;;;;;;5093014;28;20416;-71
2021/10/28 22:25:22;;;;;;;0.50;0.50;;;6.90;99.90;;;;;;5092322;28;20440;-70
2021/10/28 22:27:48;;;;;;;0.40;0.20;;;7.00;99.90;;;;;;5092179;28;20378;-70
2021/10/28 22:30:14;;;;;;;0.57;0.57;;;6.80;99.90;;;;;;5092631;28;20386;-70
2021/10/28 22:32:41;;;;;;;0.40;0.40;;;6.80;99.90;;;;;;5091763;28;20707;-70
2021/10/28 22:35:12;;;;;;;0.60;0.60;;;6.80;99.90;;;;;;5092476;28;20390;-70
2021/10/28 22:37:42;;;;;;;0.40;0.20;;;6.90;99.90;;;;;;5091531;28;20386;-70
2021/10/28 22:42:37;;;;;;;1.30;1.23;;;6.90;99.90;;;;;;5091328;28;20381;-70
2021/10/28 22:45:04;;;;;;;0.40;0.40;;;6.90;99.90;;;;;;5092192;28;20469;-70
2021/10/28 22:47:30;;;;;;;0.40;0.30;;;6.70;99.90;;;;;;5091783;28;20386;-72
2021/10/28 22:49:56;;;;;;;1.30;0.50;;;6.70;99.90;;;;;;5091707;28;20513;-70
2021/10/28 22:52:25;;;;;;;0.40;0.30;;;6.70;99.90;;;;;;5091937;28;20413;-70
2021/10/28 22:54:59;;;;;;;0.93;0.52;;;6.70;99.90;;;;;;5089980;28;21026;-70